Time;durP1;ratioP1;P1;durP2;ratioP2;P2;SDS_P1;SDS_P2;PMS_P1;PMS_P2;Temp;Humidity;BMP_temperature;BMP_pressure;BME280_temperature;BME280_humidity;BME280_pressure;Samples;Min_cycle;Max_cycle;Signal;HPM_P1;HPM_P2
2024/04/23 00:01:09;;;;;;;2.63;1.80;;;;;;;;;;6228020;23;19999;-71
2024/04/23 00:03:35;;;;;;;2.95;2.25;;;;;;;;;;6227610;23;20025;-71
2024/04/23 00:06:00;;;;;;;3.15;1.83;;;;;;;;;;6226935;23;20676;-71
2024/04/23 00:08:26;;;;;;;2.78;1.50;;;;;;;;;;6229985;22;20005;-71
2024/04/23 00:10:51;;;;;;;5.15;3.00;;;;;;;;;;6229753;22;19994;-68
2024/04/23 00:13:17;;;;;;;2.60;1.70;;;;;;;;;;6228096;23;20432;-69
2024/04/23 00:15:42;;;;;;;5.25;1.98;;;;;;;;;;6227436;23;19993;-70
2024/04/23 00:18:08;;;;;;;6.78;1.77;;;;;;;;;;6227677;23;20000;-71
2024/04/23 00:20:34;;;;;;;2.22;1.63;;;;;;;;;;6266339;22;19996;-71
2024/04/23 00:22:59;;;;;;;2.40;2.20;;;;;;;;;;6234329;22;19990;-71
2024/04/23 00:25:24;;;;;;;3.63;1.92;;;;;;;;;;6229046;23;20021;-72
2024/04/23 00:27:50;;;;;;;4.78;2.20;;;;;;;;;;6228642;23;20065;-71
2024/04/23 00:30:15;;;;;;;2.97;1.95;;;;;;;;;;6232263;22;20065;-71
2024/04/23 00:32:41;;;;;;;1.73;1.63;;;;;;;;;;6228439;23;20435;-71
2024/04/23 00:35:06;;;;;;;2.13;1.67;;;;;;;;;;6228101;23;19994;-70
2024/04/23 00:37:31;;;;;;;4.68;2.30;;;;;;;;;;6230076;22;19993;-70
2024/04/23 00:39:58;;;;;;;4.18;2.38;;;;;;;;;;6226651;23;19989;-70
2024/04/23 00:42:23;;;;;;;1.52;1.10;;;;;;;;;;6228287;22;20315;-71
2024/04/23 00:44:51;;;;;;;6.45;1.92;;;;;;;;;;6188189;23;20029;-71
2024/04/23 00:47:17;;;;;;;2.45;1.63;;;;;;;;;;6188644;23;20029;-71
2024/04/23 00:49:42;;;;;;;2.58;1.77;;;;;;;;;;6227057;23;20002;-70
2024/04/23 00:52:08;;;;;;;2.28;1.70;;;;;;;;;;6226067;23;20004;-70
2024/04/23 00:54:33;;;;;;;4.38;1.92;;;;;;;;;;6227143;23;20000;-72
2024/04/23 00:56:59;;;;;;;4.30;2.17;;;;;;;;;;6229180;22;19994;-71
2024/04/23 00:59:25;;;;;;;5.22;2.33;;;;;;;;;;6227143;23;19993;-70
2024/04/23 01:01:52;;;;;;;3.22;1.70;;;;;;;;;;6226971;23;20072;-71
2024/04/23 01:04:18;;;;;;;6.70;2.45;;;;;;;;;;6229399;22;20001;-70
2024/04/23 01:06:43;;;;;;;3.80;1.42;;;;;;;;;;6267499;22;19996;-71
2024/04/23 01:09:09;;;;;;;3.15;1.63;;;;;;;;;;6228797;22;20301;-71
2024/04/23 01:11:34;;;;;;;4.22;2.05;;;;;;;;;;6225478;23;20029;-72
2024/04/23 01:14:00;;;;;;;3.25;2.00;;;;;;;;;;6228089;22;19997;-70
2024/04/23 01:16:28;;;;;;;4.22;1.92;;;;;;;;;;6226552;23;20004;-71
2024/04/23 01:18:55;;;;;;;3.65;1.95;;;;;;;;;;6226396;23;20005;-72
2024/04/23 01:21:25;;;;;;;3.22;2.10;;;;;;;;;;6272516;22;19993;-73
2024/04/23 01:23:55;;;;;;;2.10;1.67;;;;;;;;;;6274445;22;20427;-70
2024/04/23 01:26:20;;;;;;;4.75;2.25;;;;;;;;;;6234590;22;20307;-71
2024/04/23 01:28:46;;;;;;;2.30;1.70;;;;;;;;;;6234613;22;19993;-72
2024/04/23 01:31:12;;;;;;;7.25;2.85;;;;;;;;;;6234066;22;19992;-70
2024/04/23 01:33:38;;;;;;;3.08;1.75;;;;;;;;;;6233829;22;19996;-70
2024/04/23 01:36:06;;;;;;;2.20;1.63;;;;;;;;;;6234858;22;20288;-70
2024/04/23 01:38:32;;;;;;;3.92;2.13;;;;;;;;;;6234401;22;20032;-69
2024/04/23 01:40:58;;;;;;;3.25;2.15;;;;;;;;;;6233016;22;19997;-71
2024/04/23 01:43:24;;;;;;;4.68;2.40;;;;;;;;;;6274688;22;20000;-70
2024/04/23 01:45:50;;;;;;;1.80;1.27;;;;;;;;;;6275811;22;20395;-70
2024/04/23 01:48:16;;;;;;;4.10;2.45;;;;;;;;;;6235234;22;19992;-70
2024/04/23 01:50:41;;;;;;;2.67;1.90;;;;;;;;;;6235225;22;19993;-70
2024/04/23 01:53:07;;;;;;;2.05;1.70;;;;;;;;;;6233359;22;20008;-69
2024/04/23 01:55:32;;;;;;;2.13;1.70;;;;;;;;;;6233593;22;19996;-71
2024/04/23 01:57:58;;;;;;;2.65;1.90;;;;;;;;;;6276114;22;20025;-70
2024/04/23 02:00:23;;;;;;;1.25;0.90;;;;;;;;;;6233956;22;20000;-70
2024/04/23 02:02:49;;;;;;;2.88;1.52;;;;;;;;;;6234520;22;20063;-74
2024/04/23 02:05:15;;;;;;;2.42;1.45;;;;;;;;;;6274458;22;20077;-71
2024/04/23 02:07:41;;;;;;;1.40;1.30;;;;;;;;;;6234662;22;19999;-71
2024/04/23 02:10:07;;;;;;;1.42;1.08;;;;;;;;;;6234236;22;20004;-71
2024/04/23 02:12:32;;;;;;;5.30;2.13;;;;;;;;;;6194278;22;20503;-70
2024/04/23 02:14:58;;;;;;;2.70;1.85;;;;;;;;;;6233378;22;20003;-69
2024/04/23 02:17:23;;;;;;;3.15;1.58;;;;;;;;;;6274395;22;19996;-70
2024/04/23 02:19:48;;;;;;;1.98;1.38;;;;;;;;;;6274608;22;20006;-72
2024/04/23 02:22:14;;;;;;;5.90;1.33;;;;;;;;;;6193929;22;20040;-72
2024/04/23 02:24:39;;;;;;;1.95;1.10;;;;;;;;;;6273512;22;19992;-71
2024/04/23 02:27:05;;;;;;;1.70;1.50;;;;;;;;;;6234571;22;20047;-69
2024/04/23 02:29:30;;;;;;;3.03;1.10;;;;;;;;;;6275454;22;20442;-69
2024/04/23 02:32:02;;;;;;;3.25;1.20;;;;;;;;;;6275570;22;19996;-70
2024/04/23 02:34:27;;;;;;;3.08;1.65;;;;;;;;;;6276042;22;20011;-70
2024/04/23 02:36:53;;;;;;;3.55;1.48;;;;;;;;;;6274269;22;19992;-71
2024/04/23 02:39:19;;;;;;;2.15;1.35;;;;;;;;;;6272561;22;19992;-72
2024/04/23 02:41:51;;;;;;;3.05;1.60;;;;;;;;;;6272930;22;20003;-69
2024/04/23 02:44:17;;;;;;;4.18;1.42;;;;;;;;;;6273408;22;20081;-71
2024/04/23 02:46:42;;;;;;;2.08;1.55;;;;;;;;;;6233396;22;20383;-69
2024/04/23 02:49:07;;;;;;;1.73;1.35;;;;;;;;;;6273532;22;20011;-70
2024/04/23 02:51:33;;;;;;;2.90;1.67;;;;;;;;;;6272913;22;20041;-70
2024/04/23 02:53:58;;;;;;;3.80;1.38;;;;;;;;;;6232506;22;19997;-71
2024/04/23 02:56:25;;;;;;;3.63;1.50;;;;;;;;;;6275679;22;19997;-70
2024/04/23 02:58:51;;;;;;;1.42;1.10;;;;;;;;;;6233409;22;20000;-70
2024/04/23 03:01:16;;;;;;;3.63;1.60;;;;;;;;;;6272927;22;19996;-71
2024/04/23 03:03:42;;;;;;;2.35;1.40;;;;;;;;;;6235453;22;20430;-70
2024/04/23 03:06:08;;;;;;;12.43;1.77;;;;;;;;;;6236163;22;20000;-70
2024/04/23 03:08:33;;;;;;;1.98;1.08;;;;;;;;;;6236272;22;19996;-70
2024/04/23 03:10:58;;;;;;;3.72;1.92;;;;;;;;;;6274759;22;20409;-70
2024/04/23 03:13:24;;;;;;;1.40;1.25;;;;;;;;;;6234947;22;20077;-70
2024/04/23 03:15:49;;;;;;;1.92;1.33;;;;;;;;;;6274179;22;20076;-70
2024/04/23 03:18:15;;;;;;;2.75;1.52;;;;;;;;;;6235725;22;19996;-70
2024/04/23 03:20:40;;;;;;;1.67;1.40;;;;;;;;;;6235414;22;20006;-70
2024/04/23 03:23:06;;;;;;;1.02;1.02;;;;;;;;;;6236011;22;20011;-70
2024/04/23 03:25:31;;;;;;;1.75;1.42;;;;;;;;;;6197139;22;20011;-71
2024/04/23 03:27:56;;;;;;;4.07;1.08;;;;;;;;;;6195787;22;20001;-70
2024/04/23 03:30:22;;;;;;;2.45;1.90;;;;;;;;;;6196169;22;19997;-70
2024/04/23 03:32:47;;;;;;;2.42;1.75;;;;;;;;;;6275892;22;19993;-71
2024/04/23 03:35:13;;;;;;;2.67;1.55;;;;;;;;;;6234689;22;19997;-70
2024/04/23 03:37:38;;;;;;;3.67;2.05;;;;;;;;;;6235749;22;20290;-70
2024/04/23 03:40:04;;;;;;;2.67;1.63;;;;;;;;;;6275234;22;20415;-69
2024/04/23 03:42:29;;;;;;;2.20;1.40;;;;;;;;;;6195325;22;20008;-70
2024/04/23 03:44:55;;;;;;;1.85;1.45;;;;;;;;;;6233704;22;20072;-71
2024/04/23 03:47:20;;;;;;;2.30;1.60;;;;;;;;;;6235455;22;20415;-72
2024/04/23 03:49:46;;;;;;;3.30;1.55;;;;;;;;;;6275614;22;20310;-70
2024/04/23 03:52:12;;;;;;;4.57;1.30;;;;;;;;;;6274272;22;20428;-70
2024/04/23 03:54:38;;;;;;;3.25;1.65;;;;;;;;;;6233273;22;20001;-70
2024/04/23 03:57:03;;;;;;;2.58;1.60;;;;;;;;;;6273596;22;20007;-71
2024/04/23 03:59:29;;;;;;;2.78;1.45;;;;;;;;;;6274639;22;20007;-71
2024/04/23 04:06:03;;;;;;;2.13;1.65;;;;;;;;;;6274252;22;19997;-70
2024/04/23 04:07:24;;;;;;;6.75;2.65;;;;;;;;;;6278076;22;19996;-71
2024/04/23 04:09:49;;;;;;;4.10;1.25;;;;;;;;;;6278495;22;20007;-71
2024/04/23 04:12:14;;;;;;;3.00;1.88;;;;;;;;;;6234254;22;20000;-71
2024/04/23 04:14:40;;;;;;;4.43;1.75;;;;;;;;;;6235457;22;19993;-71
2024/04/23 04:17:05;;;;;;;1.85;1.30;;;;;;;;;;6234660;22;20540;-72
2024/04/23 04:19:32;;;;;;;3.42;1.70;;;;;;;;;;6194608;22;20001;-72
2024/04/23 04:21:58;;;;;;;4.45;1.73;;;;;;;;;;6270819;22;20419;-71
2024/04/23 04:24:23;;;;;;;4.40;1.70;;;;;;;;;;6230897;22;19996;-72
2024/04/23 04:26:49;;;;;;;5.07;2.40;;;;;;;;;;6275182;22;19992;-73
2024/04/23 04:29:14;;;;;;;2.67;1.20;;;;;;;;;;6233838;22;19992;-72
2024/04/23 04:31:40;;;;;;;3.08;1.75;;;;;;;;;;6193428;22;19992;-73
2024/04/23 04:34:05;;;;;;;3.65;2.03;;;;;;;;;;6234125;22;19989;-72
2024/04/23 04:36:30;;;;;;;3.28;1.67;;;;;;;;;;6234688;22;19993;-71
2024/04/23 04:38:56;;;;;;;5.65;2.53;;;;;;;;;;6275365;22;20008;-72
2024/04/23 04:41:22;;;;;;;2.08;1.35;;;;;;;;;;6274694;22;20426;-71
2024/04/23 04:43:47;;;;;;;1.92;1.67;;;;;;;;;;6195700;22;20303;-71
2024/04/23 04:46:13;;;;;;;1.88;1.25;;;;;;;;;;6275777;22;20357;-71
2024/04/23 04:48:39;;;;;;;2.15;1.40;;;;;;;;;;6272257;22;20000;-70
2024/04/23 04:51:04;;;;;;;3.28;2.00;;;;;;;;;;6273773;22;19992;-75
2024/04/23 04:53:30;;;;;;;3.42;1.75;;;;;;;;;;6276586;22;19993;-70
2024/04/23 04:55:57;;;;;;;2.75;1.77;;;;;;;;;;6274805;22;19996;-71
2024/04/23 04:58:22;;;;;;;4.43;2.10;;;;;;;;;;6236034;22;20011;-71
2024/04/23 05:00:51;;;;;;;2.78;1.75;;;;;;;;;;6194340;22;20004;-71
2024/04/23 05:03:19;;;;;;;5.38;2.72;;;;;;;;;;6273673;22;20760;-74
2024/04/23 05:05:45;;;;;;;3.22;1.85;;;;;;;;;;6275564;22;19993;-72
2024/04/23 05:08:10;;;;;;;1.63;1.52;;;;;;;;;;6274314;22;20418;-71
2024/04/23 05:10:36;;;;;;;2.47;1.38;;;;;;;;;;6193617;22;20078;-71
2024/04/23 05:13:08;;;;;;;4.50;2.40;;;;;;;;;;6232409;22;19996;-72
2024/04/23 05:15:36;;;;;;;4.57;2.10;;;;;;;;;;6271649;22;20001;-71
2024/04/23 05:18:02;;;;;;;1.92;1.38;;;;;;;;;;6273777;22;20008;-71
2024/04/23 05:20:28;;;;;;;3.35;2.10;;;;;;;;;;6274500;22;20334;-72
2024/04/23 05:22:53;;;;;;;6.78;1.92;;;;;;;;;;6272634;22;20292;-71
2024/04/23 05:25:19;;;;;;;4.57;2.05;;;;;;;;;;6233791;22;20416;-71
2024/04/23 05:27:44;;;;;;;2.90;1.92;;;;;;;;;;6273170;22;20001;-71
2024/04/23 05:32:58;;;;;;;2.22;1.63;;;;;;;;;;6205082;22;20008;-74
2024/04/23 05:35:23;;;;;;;3.60;2.45;;;;;;;;;;6226287;22;19995;-72
2024/04/23 05:37:49;;;;;;;3.08;2.28;;;;;;;;;;6231844;22;20004;-72
2024/04/23 05:40:14;;;;;;;4.32;2.22;;;;;;;;;;6271206;22;20521;-71
2024/04/23 05:42:40;;;;;;;4.03;1.88;;;;;;;;;;6232074;22;20003;-72
2024/04/23 05:45:05;;;;;;;6.90;1.85;;;;;;;;;;6193452;22;20714;-71
2024/04/23 05:47:31;;;;;;;2.72;1.60;;;;;;;;;;6275290;22;20064;-71
2024/04/23 05:50:15;;;;;;;4.65;2.20;;;;;;;;;;6190711;22;20007;-72
2024/04/23 05:53:18;;;;;;;2.50;1.73;;;;;;;;;;6235640;22;20007;-72
2024/04/23 05:56:03;;;;;;;5.78;2.35;;;;;;;;;;6271276;22;20065;-71
2024/04/23 05:58:29;;;;;;;4.72;2.08;;;;;;;;;;6264045;22;19993;-71
2024/04/23 06:00:56;;;;;;;5.07;1.95;;;;;;;;;;6225538;22;20003;-73
2024/04/23 06:03:22;;;;;;;4.40;1.90;;;;;;;;;;6225497;22;20011;-72
2024/04/23 06:05:48;;;;;;;2.17;1.98;;;;;;;;;;6229332;22;20397;-71
2024/04/23 06:08:14;;;;;;;2.38;1.55;;;;;;;;;;6227692;22;20066;-72
2024/04/23 06:10:39;;;;;;;4.30;2.33;;;;;;;;;;6188302;22;20003;-73
2024/04/23 06:13:06;;;;;;;6.07;1.90;;;;;;;;;;6268437;22;20000;-70
2024/04/23 06:15:32;;;;;;;4.05;2.03;;;;;;;;;;6230258;22;20003;-71
2024/04/23 06:17:57;;;;;;;4.70;1.92;;;;;;;;;;6233165;22;20005;-70
2024/04/23 06:20:23;;;;;;;1.48;1.35;;;;;;;;;;6231585;22;20072;-71
2024/04/23 06:22:51;;;;;;;5.10;2.30;;;;;;;;;;6231049;22;20003;-72
2024/04/23 06:25:17;;;;;;;3.65;1.88;;;;;;;;;;6191239;22;20000;-72
2024/04/23 06:27:42;;;;;;;2.88;2.25;;;;;;;;;;6231796;22;19989;-71
2024/04/23 06:30:12;;;;;;;5.28;2.08;;;;;;;;;;6230749;22;20650;-70
2024/04/23 06:32:39;;;;;;;2.85;1.92;;;;;;;;;;6273894;22;20024;-72
2024/04/23 06:35:05;;;;;;;1.75;1.45;;;;;;;;;;6231810;22;19989;-72
2024/04/23 06:37:30;;;;;;;3.40;2.05;;;;;;;;;;6270693;22;19992;-71
2024/04/23 06:39:56;;;;;;;4.03;2.20;;;;;;;;;;6229414;22;20483;-70
2024/04/23 06:42:22;;;;;;;3.42;2.03;;;;;;;;;;6270617;22;20094;-71
2024/04/23 06:44:48;;;;;;;2.35;2.00;;;;;;;;;;6270959;22;20073;-71
2024/04/23 06:47:14;;;;;;;3.30;1.80;;;;;;;;;;6270692;22;19993;-70
2024/04/23 06:49:42;;;;;;;3.60;1.67;;;;;;;;;;6228160;22;20068;-72
2024/04/23 06:52:16;;;;;;;5.40;1.58;;;;;;;;;;6229746;22;19993;-71
2024/04/23 06:54:42;;;;;;;1.30;1.08;;;;;;;;;;6230986;22;19993;-71
2024/04/23 06:57:08;;;;;;;5.28;2.35;;;;;;;;;;6230443;22;20335;-71
2024/04/23 06:59:33;;;;;;;4.13;1.70;;;;;;;;;;6273627;22;19993;-71
2024/04/23 07:01:59;;;;;;;3.17;1.52;;;;;;;;;;6273513;22;20533;-72
2024/04/23 07:04:25;;;;;;;2.83;1.52;;;;;;;;;;6231767;22;19993;-71
2024/04/23 07:06:53;;;;;;;2.95;1.70;;;;;;;;;;6273997;22;20365;-71
2024/04/23 07:09:20;;;;;;;1.63;1.52;;;;;;;;;;6227903;22;19997;-71
2024/04/23 07:11:46;;;;;;;2.45;1.13;;;;;;;;;;6231282;22;20307;-72
2024/04/23 07:14:11;;;;;;;3.05;1.60;;;;;;;;;;6232116;22;19992;-72
2024/04/23 07:16:38;;;;;;;4.25;1.70;;;;;;;;;;6231435;22;20629;-71
2024/04/23 07:19:03;;;;;;;3.17;1.70;;;;;;;;;;6232342;22;19992;-70
2024/04/23 07:21:29;;;;;;;5.75;2.67;;;;;;;;;;6229362;22;20081;-71
2024/04/23 07:23:55;;;;;;;4.32;1.60;;;;;;;;;;6230094;22;20089;-71
2024/04/23 07:26:22;;;;;;;1.77;1.30;;;;;;;;;;6230455;22;19992;-71
2024/04/23 07:28:50;;;;;;;1.80;1.30;;;;;;;;;;6230835;22;20016;-73
2024/04/23 07:31:16;;;;;;;2.92;1.55;;;;;;;;;;6232072;22;20001;-71
2024/04/23 07:33:42;;;;;;;2.78;1.40;;;;;;;;;;6271072;22;19997;-71
2024/04/23 07:36:08;;;;;;;4.00;1.45;;;;;;;;;;6270459;22;19997;-71
2024/04/23 07:38:35;;;;;;;1.75;1.60;;;;;;;;;;6231650;22;20503;-71
2024/04/23 07:41:01;;;;;;;2.13;1.17;;;;;;;;;;6192423;22;19997;-71
2024/04/23 07:43:27;;;;;;;5.43;1.30;;;;;;;;;;6231158;22;20371;-72
2024/04/23 07:45:52;;;;;;;3.10;1.40;;;;;;;;;;6232556;22;19999;-71
2024/04/23 07:48:18;;;;;;;1.55;1.00;;;;;;;;;;6272793;22;20025;-71
2024/04/23 07:50:44;;;;;;;2.42;1.25;;;;;;;;;;6274976;22;19989;-71
2024/04/23 07:53:10;;;;;;;3.65;1.27;;;;;;;;;;6231629;22;20089;-73
2024/04/23 07:55:36;;;;;;;1.88;1.00;;;;;;;;;;6275244;22;20008;-71
2024/04/23 07:58:01;;;;;;;1.95;0.95;;;;;;;;;;6233839;22;20303;-73
2024/04/23 08:00:30;;;;;;;2.28;1.27;;;;;;;;;;6272283;22;20212;-71
2024/04/23 08:02:59;;;;;;;3.05;1.65;;;;;;;;;;6275851;22;19996;-72
2024/04/23 08:05:27;;;;;;;2.88;1.30;;;;;;;;;;6234700;22;19997;-71
2024/04/23 08:07:52;;;;;;;2.30;1.17;;;;;;;;;;6266028;22;20004;-72
2024/04/23 08:10:18;;;;;;;3.28;1.80;;;;;;;;;;6233812;22;20338;-71
2024/04/23 08:12:47;;;;;;;3.70;1.35;;;;;;;;;;6272995;22;20068;-71
2024/04/23 08:15:13;;;;;;;3.47;1.33;;;;;;;;;;6232389;22;19997;-72
2024/04/23 08:17:39;;;;;;;3.38;1.30;;;;;;;;;;6274385;22;20003;-70
2024/04/23 08:20:05;;;;;;;1.90;1.10;;;;;;;;;;6273141;22;20805;-74
2024/04/23 08:22:31;;;;;;;4.95;1.10;;;;;;;;;;6271685;22;20005;-71
2024/04/23 08:24:56;;;;;;;1.63;1.10;;;;;;;;;;6232962;22;20001;-70
2024/04/23 08:27:22;;;;;;;2.42;1.17;;;;;;;;;;6233449;22;20012;-70
2024/04/23 08:29:47;;;;;;;2.05;0.85;;;;;;;;;;6232685;22;19999;-69
2024/04/23 08:32:14;;;;;;;1.70;0.63;;;;;;;;;;6232507;22;19993;-71
2024/04/23 08:34:39;;;;;;;1.10;0.90;;;;;;;;;;6271766;22;20003;-71
2024/04/23 08:37:08;;;;;;;4.00;1.02;;;;;;;;;;6233114;22;19992;-70
2024/04/23 08:39:35;;;;;;;3.10;0.80;;;;;;;;;;6232352;22;20310;-70
2024/04/23 08:42:01;;;;;;;1.27;0.75;;;;;;;;;;6271715;22;20077;-70
2024/04/23 08:44:29;;;;;;;1.13;0.90;;;;;;;;;;6193353;22;20392;-70
2024/04/23 08:46:54;;;;;;;1.00;0.90;;;;;;;;;;6232738;22;20380;-70
2024/04/23 08:49:20;;;;;;;1.23;0.93;;;;;;;;;;6232546;22;20008;-70
2024/04/23 08:51:46;;;;;;;1.08;0.98;;;;;;;;;;6232511;22;19996;-71
2024/04/23 08:54:11;;;;;;;1.20;0.90;;;;;;;;;;6273005;22;20011;-73
2024/04/23 08:56:42;;;;;;;1.48;0.88;;;;;;;;;;6233364;22;20363;-70
2024/04/23 08:59:09;;;;;;;0.77;0.77;;;;;;;;;;6275266;22;20280;-71
2024/04/23 09:01:35;;;;;;;2.45;0.85;;;;;;;;;;6233108;22;20006;-71
2024/04/23 09:04:02;;;;;;;1.65;0.90;;;;;;;;;;6193895;22;20008;-70
2024/04/23 09:06:27;;;;;;;1.17;1.08;;;;;;;;;;6235543;22;20008;-70
2024/04/23 09:08:58;;;;;;;2.35;1.10;;;;;;;;;;6274188;22;19997;-73
2024/04/23 09:11:27;;;;;;;1.05;0.82;;;;;;;;;;6274271;22;20031;-71
2024/04/23 09:13:58;;;;;;;3.30;0.82;;;;;;;;;;6193002;22;20012;-76
2024/04/23 09:16:27;;;;;;;2.00;0.80;;;;;;;;;;6271245;22;20008;-73
2024/04/23 09:18:55;;;;;;;3.40;1.13;;;;;;;;;;6192490;22;20012;-71
2024/04/23 09:21:21;;;;;;;1.88;1.25;;;;;;;;;;6230629;22;20012;-71
2024/04/23 09:23:47;;;;;;;1.55;1.00;;;;;;;;;;6271433;22;19996;-70
2024/04/23 09:26:12;;;;;;;1.05;0.95;;;;;;;;;;6274531;22;20028;-71
2024/04/23 09:28:41;;;;;;;0.82;0.73;;;;;;;;;;6231213;22;19996;-70
2024/04/23 09:31:07;;;;;;;2.60;1.17;;;;;;;;;;6271396;22;20008;-70
2024/04/23 09:33:33;;;;;;;3.42;0.90;;;;;;;;;;6274342;22;20295;-73
2024/04/23 09:35:59;;;;;;;1.98;0.90;;;;;;;;;;6193930;22;19997;-71
2024/04/23 09:38:25;;;;;;;1.38;1.00;;;;;;;;;;6232149;22;20021;-71
2024/04/23 09:40:50;;;;;;;1.45;0.98;;;;;;;;;;6231932;22;19993;-71
2024/04/23 09:43:21;;;;;;;0.98;0.80;;;;;;;;;;6232597;22;20376;-70
2024/04/23 09:45:47;;;;;;;0.95;0.80;;;;;;;;;;6232512;22;19997;-70
2024/04/23 09:48:14;;;;;;;0.50;0.50;;;;;;;;;;6274390;22;20746;-70
2024/04/23 09:50:39;;;;;;;0.80;0.80;;;;;;;;;;6231802;22;19993;-70
2024/04/23 09:53:09;;;;;;;0.95;0.70;;;;;;;;;;6231926;22;20437;-72
2024/04/23 09:55:34;;;;;;;1.33;1.00;;;;;;;;;;6232421;22;20012;-70
2024/04/23 09:58:00;;;;;;;1.33;0.77;;;;;;;;;;6193196;22;20431;-71
2024/04/23 10:00:29;;;;;;;0.95;0.70;;;;;;;;;;6271984;22;20028;-71
2024/04/23 10:03:00;;;;;;;1.13;0.77;;;;;;;;;;6271621;22;19996;-71
2024/04/23 10:05:30;;;;;;;1.15;0.70;;;;;;;;;;6232757;22;19997;-69
2024/04/23 10:08:03;;;;;;;3.33;1.30;;;;;;;;;;6233081;22;20015;-69
2024/04/23 10:10:35;;;;;;;1.85;0.80;;;;;;;;;;6231755;22;19997;-71
2024/04/23 10:13:02;;;;;;;1.42;0.93;;;;;;;;;;6272552;22;20049;-70
2024/04/23 10:15:43;;;;;;;1.67;0.63;;;;;;;;;;6232702;22;20004;-69
2024/04/23 10:18:08;;;;;;;;;;;;;;;;;;6272458;22;20387;-69
2024/04/23 10:20:42;;;;;;;0.65;0.63;;;;;;;;;;6231116;22;19972;-69
2024/04/23 10:23:08;;;;;;;4.35;0.68;;;;;;;;;;6271016;22;20626;-70
2024/04/23 10:25:33;;;;;;;1.02;0.60;;;;;;;;;;6271503;22;20007;-70
2024/04/23 10:27:59;;;;;;;1.48;0.75;;;;;;;;;;6231736;22;19992;-70
2024/04/23 10:30:27;;;;;;;0.88;0.70;;;;;;;;;;6273561;22;20009;-71
2024/04/23 10:32:58;;;;;;;0.95;0.68;;;;;;;;;;6231833;22;20443;-72
2024/04/23 10:35:24;;;;;;;;;;;;;;;;;;6192646;22;20004;-71
2024/04/23 10:37:50;;;;;;;1.17;0.60;;;;;;;;;;6230480;22;20251;-72
2024/04/23 10:40:17;;;;;;;0.85;0.50;;;;;;;;;;6231529;22;20008;-72
2024/04/23 10:42:43;;;;;;;1.88;1.05;;;;;;;;;;6272236;22;20012;-69
2024/04/23 10:45:09;;;;;;;0.80;0.68;;;;;;;;;;6230779;22;20069;-69
2024/04/23 10:47:35;;;;;;;1.08;0.73;;;;;;;;;;6272895;22;20013;-73
2024/04/23 10:50:07;;;;;;;4.30;0.50;;;;;;;;;;6190796;22;20710;-70
2024/04/23 10:52:33;;;;;;;1.40;0.50;;;;;;;;;;6271285;22;19996;-72
2024/04/23 10:54:58;;;;;;;0.90;0.50;;;;;;;;;;6272695;22;20003;-72
2024/04/23 10:57:24;;;;;;;0.90;0.50;;;;;;;;;;6230831;22;20034;-70
2024/04/23 10:59:50;;;;;;;0.80;0.50;;;;;;;;;;6231400;22;20049;-73
2024/04/23 11:02:22;;;;;;;2.08;0.90;;;;;;;;;;6270947;22;20085;-73
2024/04/23 11:04:49;;;;;;;1.05;0.80;;;;;;;;;;6231894;22;19992;-69
2024/04/23 11:07:25;;;;;;;1.25;0.60;;;;;;;;;;6271280;22;19993;-71
2024/04/23 11:09:55;;;;;;;1.52;0.85;;;;;;;;;;6272879;22;20008;-70
2024/04/23 11:12:23;;;;;;;1.08;0.70;;;;;;;;;;6273850;22;20007;-70
2024/04/23 11:14:49;;;;;;;1.98;0.80;;;;;;;;;;6230389;22;19992;-70
2024/04/23 11:17:15;;;;;;;2.05;0.68;;;;;;;;;;6271600;22;19993;-70
2024/04/23 11:19:42;;;;;;;2.38;0.70;;;;;;;;;;6273334;22;19992;-70
2024/04/23 11:22:13;;;;;;;1.30;0.70;;;;;;;;;;6231374;22;19996;-70
2024/04/23 11:24:54;;;;;;;1.27;0.95;;;;;;;;;;6233723;22;20008;-71
2024/04/23 11:27:20;;;;;;;1.20;0.88;;;;;;;;;;6275089;22;20000;-70
2024/04/23 11:29:46;;;;;;;2.10;0.95;;;;;;;;;;6233409;22;20016;-70
2024/04/23 11:32:12;;;;;;;1.33;0.93;;;;;;;;;;6233962;22;20008;-73
2024/04/23 11:34:39;;;;;;;1.20;0.88;;;;;;;;;;6276072;22;19989;-69
2024/04/23 11:37:04;;;;;;;1.23;0.80;;;;;;;;;;6274382;22;20319;-70
2024/04/23 11:39:31;;;;;;;2.17;1.20;;;;;;;;;;6234977;22;19996;-71
2024/04/23 11:41:57;;;;;;;2.20;1.00;;;;;;;;;;6234749;22;19988;-71
2024/04/23 11:44:23;;;;;;;2.75;1.00;;;;;;;;;;6275520;22;19989;-70
2024/04/23 11:46:53;;;;;;;4.90;0.90;;;;;;;;;;6275799;22;20072;-71
2024/04/23 11:49:19;;;;;;;1.40;0.82;;;;;;;;;;6233057;22;20041;-70
2024/04/23 11:51:45;;;;;;;1.00;0.90;;;;;;;;;;6234509;22;20383;-80
2024/04/23 11:54:10;;;;;;;1.30;0.95;;;;;;;;;;6233981;22;20415;-70
2024/04/23 11:56:35;;;;;;;1.60;1.17;;;;;;;;;;6274061;22;19988;-72
2024/04/23 11:59:01;;;;;;;1.85;1.20;;;;;;;;;;6273098;22;19993;-69
2024/04/23 12:01:28;;;;;;;1.92;1.30;;;;;;;;;;6234104;22;20078;-70
2024/04/23 12:03:54;;;;;;;1.13;0.77;;;;;;;;;;6273843;22;20015;-72
2024/04/23 12:06:20;;;;;;;3.50;1.25;;;;;;;;;;6231777;22;19996;-70
2024/04/23 12:08:46;;;;;;;1.92;1.25;;;;;;;;;;6233561;22;20004;-74
2024/04/23 12:11:12;;;;;;;1.73;1.00;;;;;;;;;;6274572;22;20570;-71
2024/04/23 12:13:38;;;;;;;3.58;1.08;;;;;;;;;;6273593;22;20003;-69
2024/04/23 12:16:04;;;;;;;1.67;1.05;;;;;;;;;;6233689;22;20431;-72
2024/04/23 12:18:29;;;;;;;2.90;1.33;;;;;;;;;;6275298;22;19997;-69
2024/04/23 12:20:55;;;;;;;2.53;1.42;;;;;;;;;;6232321;22;19997;-71
2024/04/23 12:23:20;;;;;;;3.05;1.70;;;;;;;;;;6231962;22;19996;-69
2024/04/23 12:25:46;;;;;;;2.83;1.67;;;;;;;;;;6273925;22;20003;-70
2024/04/23 12:28:11;;;;;;;2.58;1.40;;;;;;;;;;6231773;22;20518;-73
2024/04/23 12:30:37;;;;;;;1.67;1.27;;;;;;;;;;6232510;22;20069;-73
2024/04/23 12:33:07;;;;;;;2.50;1.05;;;;;;;;;;6232145;22;19993;-71
2024/04/23 12:35:32;;;;;;;2.58;1.50;;;;;;;;;;6232994;22;19993;-75
2024/04/23 12:37:58;;;;;;;3.67;1.40;;;;;;;;;;6229771;22;20003;-72
2024/04/23 12:40:23;;;;;;;2.28;1.70;;;;;;;;;;6268707;22;20015;-78
2024/04/23 12:42:48;;;;;;;3.08;1.48;;;;;;;;;;6191236;22;20073;-71
2024/04/23 12:45:14;;;;;;;3.25;1.45;;;;;;;;;;6272815;22;20315;-71
2024/04/23 12:47:39;;;;;;;1.35;1.17;;;;;;;;;;6232094;22;20001;-70
2024/04/23 12:50:05;;;;;;;1.88;1.20;;;;;;;;;;6272659;22;20396;-74
2024/04/23 12:52:30;;;;;;;1.67;1.23;;;;;;;;;;6231474;22;19997;-71
2024/04/23 12:54:56;;;;;;;3.90;1.10;;;;;;;;;;6274144;22;19993;-73
2024/04/23 12:57:21;;;;;;;1.50;1.23;;;;;;;;;;6269888;22;20445;-74
2024/04/23 12:59:47;;;;;;;1.58;0.90;;;;;;;;;;6232486;22;19989;-70
2024/04/23 13:02:13;;;;;;;1.98;1.10;;;;;;;;;;6192272;22;20025;-73
2024/04/23 13:04:38;;;;;;;1.15;1.00;;;;;;;;;;6273941;22;19997;-71
2024/04/23 13:07:04;;;;;;;0.80;0.80;;;;;;;;;;6275050;22;20431;-71
2024/04/23 13:09:29;;;;;;;1.92;1.00;;;;;;;;;;6274505;22;20003;-70
2024/04/23 13:11:55;;;;;;;1.27;0.82;;;;;;;;;;6232486;22;19996;-73
2024/04/23 13:14:20;;;;;;;1.00;0.82;;;;;;;;;;6233405;22;20304;-73
2024/04/23 13:16:48;;;;;;;1.27;1.00;;;;;;;;;;6274282;22;20331;-71
2024/04/23 13:19:14;;;;;;;4.80;1.35;;;;;;;;;;6193705;22;20008;-71
2024/04/23 13:21:39;;;;;;;1.83;1.13;;;;;;;;;;6274581;22;20000;-70
2024/04/23 13:24:04;;;;;;;2.97;1.45;;;;;;;;;;6273667;22;20011;-70
2024/04/23 13:26:30;;;;;;;1.92;1.23;;;;;;;;;;6274516;22;20477;-70
2024/04/23 13:28:55;;;;;;;1.35;1.02;;;;;;;;;;6272888;22;20457;-71
2024/04/23 13:31:20;;;;;;;1.67;0.85;;;;;;;;;;6232127;22;20012;-71
2024/04/23 13:33:46;;;;;;;1.42;0.90;;;;;;;;;;6194334;22;20095;-71
2024/04/23 13:36:11;;;;;;;2.20;0.90;;;;;;;;;;6193200;22;20008;-75
2024/04/23 13:38:36;;;;;;;1.10;1.00;;;;;;;;;;6231243;22;20007;-73
2024/04/23 13:41:02;;;;;;;1.45;0.95;;;;;;;;;;6274088;22;20025;-71
2024/04/23 13:43:27;;;;;;;1.35;0.90;;;;;;;;;;6231687;22;20004;-72
2024/04/23 13:45:56;;;;;;;2.65;1.23;;;;;;;;;;6232748;22;20007;-70
2024/04/23 13:48:21;;;;;;;2.35;1.42;;;;;;;;;;6274886;22;20020;-75
2024/04/23 13:50:47;;;;;;;2.22;1.20;;;;;;;;;;6274859;22;20797;-70
2024/04/23 13:53:12;;;;;;;1.60;0.95;;;;;;;;;;6275099;22;20003;-74
2024/04/23 13:55:38;;;;;;;1.33;1.10;;;;;;;;;;6193598;22;20029;-70
2024/04/23 13:58:04;;;;;;;1.98;0.85;;;;;;;;;;6233568;22;20001;-70
2024/04/23 14:00:29;;;;;;;1.42;0.93;;;;;;;;;;6233110;22;20388;-70
2024/04/23 14:02:55;;;;;;;1.35;1.00;;;;;;;;;;6233664;22;20003;-75
2024/04/23 14:05:21;;;;;;;1.13;0.98;;;;;;;;;;6232826;22;20004;-70
2024/04/23 14:07:47;;;;;;;1.10;1.00;;;;;;;;;;6194532;22;20003;-70
2024/04/23 14:10:12;;;;;;;1.23;0.80;;;;;;;;;;6192896;22;19988;-72
2024/04/23 14:12:42;;;;;;;1.08;0.98;;;;;;;;;;6272207;22;20079;-71
2024/04/23 14:15:07;;;;;;;1.58;0.77;;;;;;;;;;6230749;22;20011;-70
2024/04/23 14:17:32;;;;;;;1.83;1.20;;;;;;;;;;6273280;22;19993;-72
2024/04/23 14:19:58;;;;;;;1.60;1.00;;;;;;;;;;6274787;22;20094;-71
2024/04/23 14:22:23;;;;;;;2.38;0.95;;;;;;;;;;6233114;22;19996;-71
2024/04/23 14:24:49;;;;;;;1.40;1.00;;;;;;;;;;6231500;22;20304;-70
2024/04/23 14:27:15;;;;;;;1.98;1.10;;;;;;;;;;6192387;22;20055;-70
2024/04/23 14:29:41;;;;;;;1.90;1.15;;;;;;;;;;6273427;22;19993;-70
2024/04/23 14:32:07;;;;;;;1.65;1.13;;;;;;;;;;6233123;22;20008;-72
2024/04/23 14:34:33;;;;;;;1.20;1.10;;;;;;;;;;6271320;22;19992;-74
2024/04/23 14:36:58;;;;;;;2.10;1.25;;;;;;;;;;6192928;22;20073;-70
2024/04/23 14:39:24;;;;;;;4.10;1.27;;;;;;;;;;6193869;22;20076;-71
2024/04/23 14:41:49;;;;;;;1.90;1.15;;;;;;;;;;6272928;22;19997;-72
2024/04/23 14:44:15;;;;;;;1.73;1.38;;;;;;;;;;6233556;22;19989;-71